Time;durP1;ratioP1;P1;durP2;ratioP2;P2;SDS_P1;SDS_P2;PMS_P1;PMS_P2;Temp;Humidity;BMP_temperature;BMP_pressure;BME280_temperature;BME280_humidity;BME280_pressure;Samples;Min_cycle;Max_cycle;Signal;HPM_P1;HPM_P2
2022/07/14 00:01:28;;;;;;;7.65;3.05;;;;;;;21.89;50.57;98802.11;2222372;80;20955;-83
2022/07/14 00:04:29;;;;;;;3.83;3.12;;;;;;;21.96;50.27;98804.09;2222499;80;20952;-82
2022/07/14 00:07:29;;;;;;;5.55;3.08;;;;;;;21.94;50.05;98803.28;2222408;80;21038;-81
2022/07/14 00:10:30;;;;;;;33.50;5.87;;;;;;;21.85;50.39;98796.95;2222027;80;20952;-84
2022/07/14 00:13:30;;;;;;;48.87;6.53;;;;;;;21.87;50.74;98801.75;2222554;80;21039;-81
2022/07/14 00:16:30;;;;;;;103.25;13.48;;;;;;;21.87;50.64;98800.43;2222249;80;21359;-82
2022/07/14 00:19:31;;;;;;;28.12;5.85;;;;;;;21.91;50.83;98800.73;2221772;80;21319;-81
2022/07/14 00:22:31;;;;;;;16.55;4.37;;;;;;;21.94;50.66;98792.66;2221800;80;21023;-82
2022/07/14 00:25:32;;;;;;;18.80;4.97;;;;;;;21.88;50.69;98793.73;2221855;80;20916;-82
2022/07/14 00:28:32;;;;;;;7.50;3.65;;;;;;;21.87;50.61;98796.44;2221704;80;21002;-82
2022/07/14 00:31:32;;;;;;;11.85;3.98;;;;;;;21.78;50.83;98787.00;2221837;80;21406;-81
2022/07/14 00:34:33;;;;;;;8.25;3.27;;;;;;;21.73;50.82;98790.27;2222024;80;20955;-82
2022/07/14 00:37:33;;;;;;;6.28;3.52;;;;;;;21.65;51.08;98788.30;2222104;80;20945;-83
2022/07/14 00:40:34;;;;;;;7.65;3.40;;;;;;;21.63;51.27;98788.81;2221823;80;20960;-82
2022/07/14 00:43:34;;;;;;;10.35;3.40;;;;;;;21.55;51.19;98789.07;2222252;80;21319;-81
2022/07/14 00:46:34;;;;;;;5.62;3.10;;;;;;;21.49;51.64;98785.30;2222291;80;20952;-82
2022/07/14 00:49:35;;;;;;;3.90;3.25;;;;;;;21.45;51.50;98787.64;2222099;80;21035;-82
2022/07/14 00:52:35;;;;;;;7.67;3.00;;;;;;;21.38;51.75;98787.43;2222354;80;21008;-83
2022/07/14 00:55:36;;;;;;;6.33;3.10;;;;;;;21.32;51.88;98791.62;2222972;80;21501;-83
2022/07/14 00:58:36;;;;;;;7.83;2.92;;;;;;;21.28;51.81;98790.84;2222718;80;21330;-83
2022/07/14 01:01:37;;;;;;;3.87;3.25;;;;;;;21.25;52.13;98790.94;2222680;80;20979;-82
2022/07/14 01:04:37;;;;;;;30.45;4.62;;;;;;;21.25;51.96;98795.39;2222509;80;20963;-82
2022/07/14 01:07:37;;;;;;;9.38;3.30;;;;;;;21.18;52.13;98797.80;2222211;80;21360;-82
2022/07/14 01:10:38;;;;;;;4.53;2.98;;;;;;;21.11;52.25;98793.59;2222452;80;20920;-83
2022/07/14 01:13:39;;;;;;;14.40;3.60;;;;;;;21.03;52.37;98791.18;2222515;80;21398;-82
2022/07/14 01:16:39;;;;;;;6.17;3.35;;;;;;;21.01;52.57;98783.73;2222978;80;21328;-81
2022/07/14 01:19:39;;;;;;;6.37;3.67;;;;;;;20.99;52.66;98778.92;2222606;80;21346;-81
2022/07/14 01:22:39;;;;;;;6.35;2.90;;;;;;;20.98;52.45;98771.88;2222211;80;21024;-82
2022/07/14 01:25:40;;;;;;;10.72;3.25;;;;;;;20.93;52.69;98768.05;2221847;80;20928;-81
2022/07/14 01:28:40;;;;;;;6.42;3.02;;;;;;;20.95;52.53;98766.21;2222007;80;21434;-83
2022/07/14 01:31:41;;;;;;;8.90;2.93;;;;;;;20.88;52.43;98769.97;2222205;80;21347;-82
2022/07/14 01:34:41;;;;;;;3.40;2.77;;;;;;;20.87;52.15;98776.66;2222095;80;21011;-82
2022/07/14 01:37:42;;;;;;;3.10;2.80;;;;;;;20.91;52.34;98783.60;2222472;80;20975;-83
2022/07/14 01:40:42;;;;;;;3.42;2.92;;;;;;;20.89;52.00;98783.64;2222352;80;21035;-83
2022/07/14 01:43:42;;;;;;;4.37;3.10;;;;;;;20.89;52.50;98783.64;2222196;80;20983;-82
2022/07/14 01:46:43;;;;;;;80.90;11.28;;;;;;;20.92;52.35;98768.95;2221992;80;20964;-80
2022/07/14 01:49:43;;;;;;;40.25;6.08;;;;;;;20.88;52.21;98769.97;2222223;80;21344;-81
2022/07/14 01:52:44;;;;;;;19.17;4.45;;;;;;;20.95;52.47;98769.32;2221944;80;21038;-83
2022/07/14 01:55:44;;;;;;;9.88;3.77;;;;;;;21.02;51.74;98780.61;2221543;80;21011;-79
2022/07/14 01:58:44;;;;;;;23.77;4.47;;;;;;;20.99;51.58;98773.16;2221757;80;20976;-81
2022/07/14 02:01:46;;;;;;;9.50;3.45;;;;;;;21.01;51.55;98770.91;2221826;80;20956;-79
2022/07/14 02:04:45;;;;;;;6.08;3.62;;;;;;;20.86;51.68;98772.27;2221941;80;21335;-82
2022/07/14 02:07:46;;;;;;;8.70;3.52;;;;;;;20.91;52.12;98760.59;2222024;80;20960;-81
2022/07/14 02:14:05;;;;;;;23.38;4.10;;;;;;;21.01;52.11;98753.20;2221930;80;20979;-80
2022/07/14 02:17:05;;;;;;;11.33;3.55;;;;;;;21.07;52.07;98752.15;2221902;80;21312;-81
2022/07/14 02:20:06;;;;;;;3.70;3.22;;;;;;;21.07;51.95;98762.77;2222020;80;20964;-82
2022/07/14 02:23:06;;;;;;;6.37;3.30;;;;;;;21.03;51.94;98758.47;2216654;80;21023;-82
2022/07/14 02:26:06;;;;;;;7.22;3.17;;;;;;;20.93;52.10;98757.43;2211168;81;20996;-82
2022/07/14 02:29:07;;;;;;;13.08;3.90;;;;;;;20.98;52.39;98759.48;2211661;81;20965;-82
2022/07/14 02:32:07;;;;;;;12.20;3.80;;;;;;;21.09;52.31;98754.30;2211445;81;21007;-82
2022/07/14 02:35:08;;;;;;;4.58;3.10;;;;;;;21.11;52.39;98754.65;2211999;81;21034;-82
2022/07/14 02:38:08;;;;;;;31.97;5.53;;;;;;;21.13;52.25;98757.26;2211896;81;20976;-82
2022/07/14 02:41:09;;;;;;;6.47;3.45;;;;;;;21.09;52.49;98763.58;2211935;81;20972;-83
2022/07/14 02:44:09;;;;;;;8.78;3.37;;;;;;;21.11;52.40;98761.75;2212150;81;20960;-83
2022/07/14 02:47:10;;;;;;;11.30;3.33;;;;;;;21.10;52.83;98762.66;2212173;81;21011;-83
2022/07/14 02:50:10;;;;;;;31.65;4.90;;;;;;;21.04;53.17;98755.77;2212320;81;20952;-83
2022/07/14 02:53:10;;;;;;;11.90;3.50;;;;;;;21.18;53.35;98753.54;2212166;81;20988;-83
2022/07/14 02:56:12;;;;;;;11.57;3.67;;;;;;;21.23;53.10;98750.77;2211668;81;20979;-81
2022/07/14 02:59:11;;;;;;;57.70;7.67;;;;;;;21.24;53.36;98748.06;2211717;81;21023;-82
2022/07/14 03:02:11;;;;;;;8.48;3.80;;;;;;;21.35;52.99;98745.05;2211933;81;20964;-83
2022/07/14 03:05:12;;;;;;;8.20;3.65;;;;;;;21.37;52.92;98737.91;2212143;81;20936;-83
2022/07/14 03:08:12;;;;;;;3.77;3.12;;;;;;;21.37;53.04;98740.56;2211918;81;20991;-83
2022/07/14 03:11:13;;;;;;;8.25;3.70;;;;;;;21.31;53.27;98734.13;2211715;81;20944;-82
2022/07/14 03:14:13;;;;;;;7.45;3.30;;;;;;;21.26;53.71;98736.06;2211569;81;20991;-82
2022/07/14 03:17:14;;;;;;;5.42;3.47;;;;;;;21.23;54.11;98738.82;2211954;81;20972;-83
2022/07/14 03:20:14;;;;;;;13.00;3.70;;;;;;;21.27;54.30;98728.51;2211402;81;20969;-82
2022/07/14 03:23:14;;;;;;;9.23;3.80;;;;;;;21.29;54.44;98731.98;2210865;81;21043;-81
2022/07/14 03:26:15;;;;;;;7.22;3.75;;;;;;;21.26;54.63;98730.75;2210610;81;20976;-81
2022/07/14 03:29:15;;;;;;;13.72;4.53;;;;;;;21.28;54.57;98727.13;2211308;81;21003;-81
2022/07/14 03:32:15;;;;;;;10.80;4.20;;;;;;;21.26;54.90;98719.68;2211496;81;21728;-80
2022/07/14 03:35:16;;;;;;;10.78;4.65;;;;;;;21.29;55.20;98720.91;2210998;81;20992;-80
2022/07/14 03:38:16;;;;;;;11.18;4.55;;;;;;;21.30;55.23;98723.09;2211339;81;20999;-82
2022/07/14 03:41:17;;;;;;;9.55;4.35;;;;;;;21.30;54.84;98719.98;2210655;81;20971;-80
2022/07/14 03:44:17;;;;;;;38.73;6.85;;;;;;;21.19;54.87;98722.55;2210101;81;21351;-83
2022/07/14 03:47:17;;;;;;;13.78;4.78;;;;;;;20.94;54.72;98723.34;2210419;81;20940;-81
2022/07/14 03:50:18;;;;;;;15.78;4.05;;;;;;;20.91;54.97;98719.47;2209952;81;20988;-80
2022/07/14 03:53:18;;;;;;;32.55;6.10;;;;;;;20.81;56.10;98720.67;2208801;81;20980;-80
2022/07/14 03:56:19;;;;;;;15.65;4.85;;;;;;;20.71;56.98;98723.62;2208534;81;20917;-81
2022/07/14 03:59:19;;;;;;;9.75;5.17;;;;;;;20.64;57.20;98722.49;2209329;81;20995;-83
2022/07/14 04:02:19;;;;;;;7.60;5.45;;;;;;;20.55;57.61;98726.75;2209584;81;20992;-82
2022/07/14 04:05:20;;;;;;;11.08;5.83;;;;;;;20.49;57.60;98730.91;2209703;81;21403;-82
2022/07/14 04:08:20;;;;;;;19.07;5.58;;;;;;;20.43;57.89;98719.16;2210520;81;20945;-80
2022/07/14 04:11:21;;;;;;;15.40;5.28;;;;;;;20.43;57.67;98720.95;2210424;81;21433;-83
2022/07/14 04:14:21;;;;;;;17.82;5.40;;;;;;;20.55;58.06;98721.91;2209369;81;21434;-81
2022/07/14 04:17:22;;;;;;;49.03;7.20;;;;;;;20.66;58.60;98719.33;2208889;81;20945;-82
2022/07/14 04:20:22;;;;;;;239.00;21.33;;;;;;;20.73;58.15;98723.98;2209301;81;20952;-83
2022/07/14 04:23:22;;;;;;;58.90;7.50;;;;;;;20.78;57.90;98731.34;2208025;81;20992;-81
2022/07/14 04:26:23;;;;;;;146.37;13.98;;;;;;;20.93;57.68;98740.19;2208588;81;21714;-81
2022/07/14 04:29:23;;;;;;;22.37;5.28;;;;;;;20.97;56.50;98732.53;2208749;81;20968;-79
2022/07/14 04:32:24;;;;;;;11.83;3.98;;;;;;;20.97;56.82;98727.23;2209051;81;20961;-80
2022/07/14 04:35:24;;;;;;;5.35;3.85;;;;;;;21.06;56.43;98738.01;2209274;81;20984;-81
2022/07/14 04:38:25;;;;;;;20.77;4.83;;;;;;;21.11;55.95;98735.20;2210427;81;20983;-83
2022/07/14 04:41:25;;;;;;;17.48;4.15;;;;;;;21.16;56.38;98735.47;2209558;81;20920;-81
2022/07/14 04:44:25;;;;;;;7.10;3.70;;;;;;;21.63;56.12;98726.39;2209629;81;20932;-81
2022/07/14 04:47:26;;;;;;;35.30;5.92;;;;;;;22.01;54.86;98730.38;2209873;81;20947;-80
2022/07/14 04:53:45;;;;;;;7.92;3.98;;;;;;;22.15;52.99;98726.80;2208001;81;21426;-79
2022/07/14 04:56:45;;;;;;;36.33;5.37;;;;;;;22.32;52.65;98726.17;2209152;81;20932;-81
2022/07/14 04:59:46;;;;;;;12.37;3.75;;;;;;;22.50;52.45;98720.62;2209222;81;20937;-81
2022/07/14 05:02:46;;;;;;;8.28;3.80;;;;;;;22.84;51.71;98716.24;2207903;81;21466;-79
2022/07/14 05:05:46;;;;;;;27.42;4.67;;;;;;;23.06;51.31;98714.45;2208560;81;20971;-77
2022/07/14 05:08:47;;;;;;;14.15;4.10;;;;;;;23.31;50.60;98716.97;2208567;81;21477;-79
2022/07/14 05:11:47;;;;;;;10.35;3.90;;;;;;;23.54;50.16;98720.50;2208316;81;20967;-78
2022/07/14 05:14:48;;;;;;;7.62;3.42;;;;;;;23.50;49.46;98720.63;2208708;81;21339;-80
2022/07/14 05:17:48;;;;;;;5.40;3.72;;;;;;;23.31;49.17;98719.63;2208850;81;20980;-78
2022/07/14 05:20:48;;;;;;;6.45;3.65;;;;;;;23.06;49.60;98722.91;2209127;81;20975;-81
2022/07/14 05:23:49;;;;;;;5.15;3.37;;;;;;;22.94;49.60;98717.61;2213722;80;21043;-82
2022/07/14 05:26:49;;;;;;;7.53;3.33;;;;;;;22.99;50.21;98721.41;2220004;80;21418;-83
2022/07/14 05:29:50;;;;;;;5.45;3.30;;;;;;;22.98;49.76;98723.67;2220545;80;20948;-80
2022/07/14 05:32:50;;;;;;;11.22;3.83;;;;;;;23.05;49.97;98731.35;2219753;80;20944;-82
2022/07/14 05:35:51;;;;;;;6.83;3.37;;;;;;;23.08;50.00;98733.02;2219774;80;20979;-79
2022/07/14 05:38:51;;;;;;;8.88;3.40;;;;;;;23.08;49.78;98733.02;2220251;80;20940;-80
2022/07/14 05:41:51;;;;;;;9.30;3.58;;;;;;;23.08;49.71;98736.55;2219367;80;20936;-82
2022/07/14 05:44:52;;;;;;;5.72;3.37;;;;;;;23.26;50.02;98740.73;2219377;80;20983;-79
2022/07/14 05:47:52;;;;;;;5.87;3.40;;;;;;;23.41;49.45;98746.31;2219263;80;20995;-81
2022/07/14 05:50:53;;;;;;;8.18;3.12;;;;;;;23.40;49.08;98749.02;2218701;80;20936;-80
2022/07/14 05:53:53;;;;;;;11.30;10.10;;;;;;;23.41;49.24;98737.00;2218210;80;21698;-80
2022/07/14 05:56:53;;;;;;;6.62;3.72;;;;;;;23.51;49.19;98746.33;2219365;80;21552;-79
2022/07/14 05:59:54;;;;;;;5.35;3.27;;;;;;;23.49;48.96;98731.34;2218946;80;20928;-78
2022/07/14 06:02:57;;;;;;;7.28;3.72;;;;;;;23.52;49.09;98748.53;2188460;80;21309;-77
2022/07/14 06:05:57;;;;;;;4.58;3.10;;;;;;;23.49;49.35;98746.86;2218569;80;20952;-79
2022/07/14 06:08:57;;;;;;;14.70;3.65;;;;;;;23.64;49.08;98756.50;2217975;80;20924;-77
2022/07/14 06:11:58;;;;;;;5.25;3.20;;;;;;;23.76;48.91;98750.66;2217760;80;20948;-79
2022/07/14 06:14:58;;;;;;;11.70;3.65;;;;;;;23.90;48.36;98754.05;2218265;80;21342;-79
2022/07/14 06:17:58;;;;;;;6.22;3.47;;;;;;;24.04;48.76;98759.18;2218755;80;20893;-80
2022/07/14 06:20:59;;;;;;;5.60;3.08;;;;;;;24.21;48.37;98764.23;2218201;80;20935;-80
2022/07/14 06:23:59;;;;;;;3.75;3.12;;;;;;;24.34;47.43;98762.34;2218630;80;21030;-80
2022/07/14 06:27:00;;;;;;;18.62;5.03;;;;;;;24.45;46.44;98774.73;2218253;80;20928;-79
2022/07/14 06:30:00;;;;;;;10.03;3.00;;;;;;;24.48;46.17;98779.06;2217512;80;20928;-79
2022/07/14 06:33:00;;;;;;;8.63;3.52;;;;;;;24.39;47.00;98783.48;2218163;80;20999;-81
2022/07/14 06:36:01;;;;;;;4.45;3.25;;;;;;;24.41;46.40;98769.60;2218525;80;21363;-80
2022/07/14 06:39:01;;;;;;;5.47;3.47;;;;;;;24.46;46.76;98778.27;2218223;80;20920;-79
2022/07/14 06:42:03;;;;;;;3.98;3.42;;;;;;;24.63;46.69;98770.81;2218470;80;20900;-81
2022/07/14 06:45:02;;;;;;;9.05;3.52;;;;;;;24.78;46.35;98775.44;2218273;80;20896;-79
2022/07/14 06:48:02;;;;;;;7.35;3.62;;;;;;;24.88;46.44;98771.88;2217800;80;20904;-80
2022/07/14 06:51:03;;;;;;;4.95;3.50;;;;;;;25.20;45.85;98774.41;2218745;80;20920;-81
2022/07/14 06:54:04;;;;;;;25.57;4.33;;;;;;;25.42;44.92;98767.53;2218611;80;21039;-81
2022/07/14 06:57:03;;;;;;;4.97;3.45;;;;;;;25.58;44.90;98765.83;2219205;80;20967;-80
2022/07/14 07:00:07;;;;;;;13.78;3.90;;;;;;;25.76;44.79;98776.09;2218468;80;21002;-80
2022/07/14 07:03:04;;;;;;;5.00;3.47;;;;;;;25.76;44.86;98772.95;2218610;80;20998;-81
2022/07/14 07:09:24;;;;;;;5.58;3.60;;;;;;;26.24;44.11;98768.70;2218711;80;20900;-81
2022/07/14 07:12:24;;;;;;;6.22;3.12;;;;;;;26.59;44.23;98767.70;2218965;80;20936;-79
2022/07/14 07:15:24;;;;;;;4.15;3.12;;;;;;;26.83;43.52;98772.19;2218748;80;21014;-80
2022/07/14 07:18:25;;;;;;;8.40;3.20;;;;;;;26.98;42.58;98770.53;2219029;80;20987;-79
2022/07/14 07:21:25;;;;;;;3.55;3.10;;;;;;;26.90;41.82;98772.74;2218009;80;21366;-76
2022/07/14 07:24:26;;;;;;;4.62;3.05;;;;;;;26.92;41.50;98776.20;2212951;80;20991;-79
2022/07/14 07:27:26;;;;;;;27.00;5.08;;;;;;;26.97;41.68;98771.45;2208636;81;20952;-80
2022/07/14 07:30:27;;;;;;;3.70;3.20;;;;;;;27.14;40.99;98758.00;2208617;81;20940;-79
2022/07/14 07:33:27;;;;;;;6.00;2.87;;;;;;;27.26;40.91;98757.77;2209392;81;20948;-80
2022/07/14 07:36:27;;;;;;;5.97;3.05;;;;;;;27.53;40.71;98756.65;2209163;81;20956;-79
2022/07/14 07:39:28;;;;;;;3.85;2.60;;;;;;;27.73;40.25;98765.76;2209407;81;21007;-79
2022/07/14 07:42:28;;;;;;;7.33;3.22;;;;;;;27.82;40.32;98773.30;2209874;81;20948;-80
2022/07/14 07:45:28;;;;;;;10.58;3.45;;;;;;;27.72;40.00;98774.77;2209558;81;20956;-81
2022/07/14 07:48:29;;;;;;;3.60;2.80;;;;;;;27.76;38.98;98776.34;2209205;81;20968;-82
2022/07/14 07:51:29;;;;;;;3.20;2.50;;;;;;;27.73;39.21;98776.96;2208966;81;20937;-80
2022/07/14 07:54:30;;;;;;;13.28;3.27;;;;;;;27.75;39.53;98773.27;2207939;81;21008;-81
2022/07/14 07:57:30;;;;;;;105.45;9.00;;;;;;;27.78;39.32;98779.80;2207368;81;20960;-82
2022/07/14 08:00:31;;;;;;;8.68;2.87;;;;;;;28.03;38.82;98774.30;2207422;81;20963;-81
2022/07/14 08:03:31;;;;;;;3.40;2.65;;;;;;;28.21;38.65;98785.27;2208047;81;20979;-80
2022/07/14 08:06:31;;;;;;;4.28;2.70;;;;;;;28.32;38.45;98788.66;2208007;81;20968;-81
2022/07/14 08:09:32;;;;;;;5.55;2.77;;;;;;;28.16;38.29;98784.20;2209234;81;21012;-80
2022/07/14 08:12:32;;;;;;;6.58;2.90;;;;;;;28.00;38.83;98790.11;2208382;81;20905;-80
2022/07/14 08:15:33;;;;;;;4.53;2.75;;;;;;;27.82;40.14;98789.86;2207776;81;21307;-81
2022/07/14 08:18:33;;;;;;;4.40;2.65;;;;;;;27.64;39.43;98787.75;2207885;81;21006;-81
2022/07/14 08:21:33;;;;;;;4.03;3.60;;;;;;;27.50;39.87;98789.00;2208960;81;20927;-81
2022/07/14 08:24:34;;;;;;;5.10;3.35;;;;;;;27.63;39.89;98788.70;2208418;81;21343;-80
2022/07/14 08:27:34;;;;;;;26.42;4.20;;;;;;;27.53;40.09;98799.55;2209075;81;20912;-82
2022/07/14 08:30:35;;;;;;;27.22;4.45;;;;;;;27.68;40.04;98791.98;2208144;81;20988;-80
2022/07/14 08:33:36;;;;;;;6.20;3.25;;;;;;;27.68;40.04;98791.98;2207353;81;20984;-80
2022/07/14 08:36:35;;;;;;;7.25;3.10;;;;;;;27.80;40.51;98794.45;2207460;81;21271;-80
2022/07/14 08:39:36;;;;;;;385.27;32.08;;;;;;;28.22;40.09;98792.36;2207915;81;20947;-80
2022/07/14 08:42:36;;;;;;;6.60;3.27;;;;;;;28.71;39.64;98796.09;2208098;81;20967;-81
2022/07/14 08:45:41;;;;;;;6.58;3.10;;;;;;;28.90;38.76;98793.14;2208101;81;21706;-79
2022/07/14 08:48:39;;;;;;;5.50;3.37;;;;;;;28.69;39.59;98789.48;2201046;81;20908;-80
2022/07/14 08:51:40;;;;;;;3.05;2.75;;;;;;;28.69;39.38;98790.83;2209106;81;20936;-81
2022/07/14 08:54:40;;;;;;;4.83;3.12;;;;;;;28.49;39.34;98797.41;2208356;81;21391;-80
2022/07/14 08:57:40;;;;;;;3.05;2.85;;;;;;;28.15;40.17;98781.61;2208301;81;20901;-79
2022/07/14 09:00:41;;;;;;;14.35;3.67;;;;;;;28.17;40.12;98781.03;2207686;81;20956;-80
2022/07/14 09:03:41;;;;;;;7.20;2.75;;;;;;;28.40;39.67;98781.87;2207515;81;20948;-80
2022/07/14 09:06:41;;;;;;;4.42;3.20;;;;;;;28.48;39.10;98778.23;2208294;81;21331;-80
2022/07/14 09:09:43;;;;;;;4.97;3.00;;;;;;;28.21;39.80;98773.19;2208280;81;20905;-79
2022/07/14 09:12:42;;;;;;;5.40;2.92;;;;;;;27.89;40.51;98775.99;2207802;81;20944;-78
2022/07/14 09:15:46;;;;;;;7.17;2.42;;;;;;;27.76;40.49;98775.47;2207409;81;21667;-80
2022/07/14 09:18:46;;;;;;;3.20;2.72;;;;;;;27.76;39.86;98773.66;2208214;81;20913;-80
2022/07/14 09:21:47;;;;;;;3.27;2.70;;;;;;;27.62;39.52;98781.62;2208488;81;20932;-79
2022/07/14 09:24:47;;;;;;;5.53;2.47;;;;;;;27.65;40.37;98784.12;2212907;80;21366;-80
2022/07/14 09:27:48;;;;;;;12.40;3.30;;;;;;;27.78;40.01;98777.11;2219114;80;20909;-81
2022/07/14 09:30:48;;;;;;;29.75;3.30;;;;;;;28.01;39.80;98784.27;2218770;80;20948;-80
2022/07/14 09:34:05;;;;;;;4.15;3.00;;;;;;;28.10;39.21;98772.50;2218233;80;20944;-81
2022/07/14 09:36:51;;;;;;;4.85;3.05;;;;;;;28.03;38.72;98790.40;2197387;80;20944;-80
2022/07/14 09:39:52;;;;;;;4.42;3.08;;;;;;;27.76;39.59;98780.84;2218789;80;21308;-81
2022/07/14 09:42:52;;;;;;;3.27;2.95;;;;;;;27.98;39.88;98777.27;2218755;80;20991;-81
2022/07/14 09:45:58;;;;;;;3.77;3.17;;;;;;;28.45;39.04;98781.10;2218408;80;20932;-81
2022/07/14 09:48:55;;;;;;;3.50;3.20;;;;;;;28.57;39.09;98784.84;2200952;80;20947;-80
2022/07/14 09:51:55;;;;;;;7.20;3.17;;;;;;;28.54;37.86;98786.38;2218699;80;20940;-79
2022/07/14 09:54:56;;;;;;;5.03;2.83;;;;;;;28.32;38.35;98782.81;2218726;80;21168;-80
2022/07/14 09:57:56;;;;;;;34.20;5.33;;;;;;;28.65;37.85;98788.42;2218919;80;20987;-80
2022/07/14 10:00:57;;;;;;;3.92;2.60;;;;;;;28.59;37.17;98777.56;2218499;80;20939;-81
2022/07/14 10:03:57;;;;;;;5.03;3.00;;;;;;;28.73;37.35;98782.09;2219027;80;20923;-79
2022/07/14 10:06:58;;;;;;;5.55;2.85;;;;;;;28.96;37.20;98765.41;2219999;80;20964;-81
2022/07/14 10:09:58;;;;;;;4.15;3.10;;;;;;;29.32;37.06;98774.72;2219385;80;21359;-83
2022/07/14 10:12:58;;;;;;;7.75;3.00;;;;;;;29.06;36.65;98773.73;2219105;80;20976;-80
2022/07/14 10:15:59;;;;;;;3.47;2.62;;;;;;;29.42;36.47;98779.39;2219612;80;20974;-80
2022/07/14 10:18:59;;;;;;;4.28;2.75;;;;;;;29.64;36.14;98773.52;2218714;80;20940;-81
2022/07/14 10:22:00;;;;;;;6.50;2.50;;;;;;;30.17;36.39;98767.67;2218328;80;20924;-81
2022/07/14 10:25:01;;;;;;;2.47;2.25;;;;;;;30.36;35.67;98761.90;2215556;80;21003;-79
2022/07/14 10:28:01;;;;;;;4.15;2.52;;;;;;;30.37;35.23;98761.79;2209464;81;20960;-82
2022/07/14 10:31:02;;;;;;;4.15;2.60;;;;;;;30.16;34.29;98771.33;2208571;81;21308;-81
2022/07/14 10:34:02;;;;;;;2.83;2.55;;;;;;;29.71;34.93;98769.45;2207142;81;20932;-80
2022/07/14 10:37:05;;;;;;;3.27;2.30;;;;;;;29.68;35.36;98754.86;2207284;81;20955;-80
2022/07/14 10:40:10;;;;;;;7.08;2.25;;;;;;;29.59;35.30;98763.55;2207291;81;21277;-80
2022/07/14 10:43:09;;;;;;;3.05;2.42;;;;;;;29.21;36.15;98766.50;2207765;81;20928;-79
2022/07/14 10:46:09;;;;;;;2.52;2.30;;;;;;;28.86;36.71;98772.33;2208573;81;20987;-81
2022/07/14 10:49:10;;;;;;;2.80;2.37;;;;;;;28.78;37.10;98775.47;2207836;81;20936;-80
2022/07/14 10:52:10;;;;;;;2.87;2.20;;;;;;;28.78;37.10;98775.47;2208141;81;20897;-80
2022/07/14 10:55:11;;;;;;;5.05;2.58;;;;;;;28.74;37.62;98777.11;2208003;81;21858;-80
2022/07/14 10:58:11;;;;;;;2.67;2.47;;;;;;;28.92;37.32;98769.25;2208522;81;20996;-81
2022/07/14 11:01:11;;;;;;;3.22;2.50;;;;;;;28.90;37.29;98783.74;2207836;81;20948;-80
2022/07/14 11:04:12;;;;;;;9.83;2.42;;;;;;;28.83;37.42;98775.17;2207534;81;20987;-78
2022/07/14 11:07:12;;;;;;;5.80;2.37;;;;;;;29.04;37.42;98767.59;2208010;81;21336;-81
2022/07/14 11:10:13;;;;;;;5.42;2.70;;;;;;;28.99;37.56;98763.86;2208703;81;20936;-80
2022/07/14 11:13:13;;;;;;;6.78;3.05;;;;;;;28.91;37.52;98760.80;2209224;81;20964;-79
2022/07/14 11:16:14;;;;;;;3.90;2.40;;;;;;;28.74;37.89;98768.56;2208637;81;21441;-80
2022/07/14 11:19:14;;;;;;;3.85;2.70;;;;;;;28.96;38.41;98764.06;2208449;81;21316;-82
2022/07/14 11:22:14;;;;;;;6.12;2.55;;;;;;;29.18;37.46;98759.02;2208370;81;20897;-79
2022/07/14 11:25:15;;;;;;;20.30;3.55;;;;;;;29.58;37.43;98757.78;2208092;80;21038;-81
2022/07/14 11:28:15;;;;;;;3.75;2.60;;;;;;;29.86;37.15;98758.61;2208168;81;20968;-78
2022/07/14 11:31:16;;;;;;;3.40;2.55;;;;;;;29.75;37.03;98752.61;2208370;81;21245;-80
2022/07/14 11:37:35;;;;;;;5.53;2.77;;;;;;;29.55;36.86;98763.38;2207662;81;20928;-79
2022/07/14 11:40:35;;;;;;;2.92;2.72;;;;;;;30.06;36.55;98762.17;2208142;81;21328;-80
2022/07/14 11:43:36;;;;;;;3.98;2.67;;;;;;;30.22;35.82;98757.45;2207801;81;20945;-78
2022/07/14 11:46:36;;;;;;;3.42;2.20;;;;;;;30.35;36.00;98750.27;2207787;81;20920;-80
2022/07/14 11:49:36;;;;;;;6.95;2.50;;;;;;;30.08;36.63;98753.02;2208134;81;20929;-81
2022/07/14 11:52:37;;;;;;;10.10;3.12;;;;;;;29.69;36.92;98760.62;2208836;81;21730;-80
2022/07/14 11:55:37;;;;;;;2.62;2.42;;;;;;;29.56;36.89;98754.82;2207679;81;20999;-81
2022/07/14 11:58:39;;;;;;;8.78;2.75;;;;;;;29.72;36.75;98744.27;2207387;81;20952;-79
2022/07/14 12:01:38;;;;;;;5.92;2.35;;;;;;;29.91;36.22;98749.26;2207357;81;20941;-79
2022/07/14 12:04:39;;;;;;;7.30;2.70;;;;;;;29.72;36.41;98752.82;2207664;81;20960;-80
2022/07/14 12:07:39;;;;;;;7.12;2.65;;;;;;;29.23;37.25;98752.00;2207250;81;20940;-81
2022/07/14 12:10:39;;;;;;;2.72;2.37;;;;;;;29.17;37.14;98751.92;2207155;81;20976;-80
2022/07/14 12:13:40;;;;;;;4.45;3.02;;;;;;;29.46;37.53;98737.06;2207122;81;20928;-80
2022/07/14 12:16:41;;;;;;;5.28;2.77;;;;;;;29.90;36.32;98737.25;2206626;81;21028;-81
2022/07/14 12:19:41;;;;;;;2.83;2.50;;;;;;;30.10;36.06;98735.42;2206333;81;20905;-80
2022/07/14 12:22:42;;;;;;;3.25;2.50;;;;;;;30.33;34.99;98734.67;2205928;81;20952;-80
2022/07/14 12:25:42;;;;;;;4.65;2.60;;;;;;;30.47;35.46;98727.48;2210560;80;21050;-78
2022/07/14 12:28:43;;;;;;;3.35;2.80;;;;;;;30.47;35.46;98727.48;2217239;80;21039;-78
2022/07/14 12:31:44;;;;;;;5.12;2.27;;;;;;;30.44;34.95;98729.91;2217591;80;21379;-78
2022/07/14 12:34:44;;;;;;;3.70;2.52;;;;;;;30.15;35.58;98733.27;2217975;80;21023;-80
2022/07/14 12:37:44;;;;;;;3.95;2.62;;;;;;;30.08;35.85;98729.28;2219445;80;20989;-81
2022/07/14 12:40:46;;;;;;;22.02;4.05;;;;;;;29.96;36.06;98727.41;2219385;80;20975;-78
2022/07/14 12:43:45;;;;;;;4.78;2.52;;;;;;;29.81;35.59;98727.98;2220183;80;20932;-78
2022/07/14 12:46:45;;;;;;;5.30;2.60;;;;;;;29.45;36.78;98732.17;2218494;80;20983;-80
2022/07/14 12:49:46;;;;;;;4.95;2.92;;;;;;;29.15;37.21;98726.10;2218398;80;20920;-78
2022/07/14 12:52:46;;;;;;;3.55;2.80;;;;;;;28.96;37.55;98726.45;2218787;80;21024;-78
2022/07/14 12:55:46;;;;;;;8.20;3.00;;;;;;;28.72;38.06;98728.86;2218372;80;20975;-78
2022/07/14 12:58:47;;;;;;;4.62;2.65;;;;;;;28.64;38.08;98732.98;2218687;80;20992;-78
2022/07/14 13:01:47;;;;;;;4.42;4.03;;;;;;;28.58;38.38;98726.63;2220140;80;20912;-80
2022/07/14 13:04:49;;;;;;;5.10;3.08;;;;;;;28.88;38.22;98723.39;2220079;80;20961;-81
2022/07/14 13:07:49;;;;;;;5.03;2.87;;;;;;;28.96;37.83;98722.89;2220135;80;20953;-82
2022/07/14 13:10:49;;;;;;;10.72;2.90;;;;;;;29.06;37.82;98720.85;2219166;80;20955;-79
2022/07/14 13:13:50;;;;;;;3.58;3.30;;;;;;;29.16;37.39;98710.36;2219631;80;20976;-80
2022/07/14 13:16:50;;;;;;;3.83;2.62;;;;;;;29.04;38.44;98713.37;2219524;80;20963;-79
2022/07/14 13:19:51;;;;;;;3.10;2.80;;;;;;;29.13;38.32;98711.91;2218454;80;20975;-79
2022/07/14 13:22:51;;;;;;;3.50;3.20;;;;;;;29.18;37.73;98699.89;2217503;80;20912;-81
2022/07/14 13:25:51;;;;;;;3.40;3.10;;;;;;;29.28;37.98;98705.99;2213538;80;21095;-80
2022/07/14 13:28:52;;;;;;;4.47;3.37;;;;;;;29.32;37.73;98700.80;2207802;81;20935;-81
2022/07/14 13:31:52;;;;;;;3.62;2.80;;;;;;;29.38;38.01;98697.69;2207275;81;20948;-80
2022/07/14 13:34:53;;;;;;;3.90;3.17;;;;;;;29.44;37.62;98699.52;2207855;81;21565;-80
2022/07/14 13:37:53;;;;;;;4.95;3.00;;;;;;;29.57;38.20;98692.86;2207647;81;20944;-80
2022/07/14 13:40:53;;;;;;;2.83;2.62;;;;;;;29.73;37.24;98696.22;2207720;81;20921;-82
2022/07/14 13:43:57;;;;;;;6.67;2.85;;;;;;;29.79;37.61;98693.59;2208290;81;20948;-80
2022/07/14 13:46:55;;;;;;;3.77;2.87;;;;;;;29.52;37.61;98690.97;2210165;81;20910;-81
2022/07/14 13:53:13;;;;;;;3.40;3.10;;;;;;;28.92;38.05;98691.34;2209539;81;20928;-80
2022/07/14 13:56:14;;;;;;;6.33;3.40;;;;;;;28.70;38.56;98690.49;2209220;81;20988;-79
2022/07/14 13:59:14;;;;;;;5.58;3.27;;;;;;;28.58;38.92;98682.33;2209488;81;21420;-79
2022/07/14 14:02:15;;;;;;;7.10;3.05;;;;;;;28.64;39.36;98677.94;2209890;81;20968;-79
2022/07/14 14:05:15;;;;;;;3.45;2.70;;;;;;;28.72;39.72;98671.59;2210062;81;20996;-82
2022/07/14 14:08:15;;;;;;;3.12;2.83;;;;;;;28.72;39.72;98671.59;2210663;81;21368;-82
2022/07/14 14:11:16;;;;;;;4.40;3.35;;;;;;;28.88;39.24;98672.34;2209569;81;20920;-81
2022/07/14 14:14:17;;;;;;;3.77;3.33;;;;;;;28.71;39.11;98668.05;2210163;81;20991;-81
2022/07/14 14:17:17;;;;;;;7.87;3.35;;;;;;;28.83;39.52;98671.31;2210001;81;20945;-81
2022/07/14 14:20:17;;;;;;;3.45;3.10;;;;;;;28.94;39.11;98659.00;2209766;81;20967;-81
2022/07/14 14:23:17;;;;;;;3.50;3.20;;;;;;;28.94;38.98;98654.48;2209448;81;21634;-81